Time;durP1;ratioP1;P1;durP2;ratioP2;P2;SDS_P1;SDS_P2;PMS_P1;PMS_P2;Temp;Humidity;BMP_temperature;BMP_pressure;BME280_temperature;BME280_humidity;BME280_pressure;Samples;Min_cycle;Max_cycle;Signal;HPM_P1;HPM_P2
2022/04/23 00:01:49;;;;;;;5.65;2.55;;;11.80;93.80;;;;;;5064027;28;20044;-76
2022/04/23 00:04:15;;;;;;;3.80;2.30;;;11.80;94.00;;;;;;5066107;28;20456;-76
2022/04/23 00:06:40;;;;;;;5.53;2.97;;;11.80;94.10;;;;;;5063940;28;20738;-76
2022/04/23 00:09:06;;;;;;;6.88;2.67;;;11.80;94.10;;;;;;5047526;28;20033;-76
2022/04/23 00:11:35;;;;;;;3.97;2.30;;;11.70;94.30;;;;;;5064894;28;20489;-76
2022/04/23 00:14:01;;;;;;;4.55;2.95;;;11.70;94.40;;;;;;5064942;28;20543;-76
2022/04/23 00:16:27;;;;;;;8.85;2.72;;;11.70;94.40;;;;;;5061108;28;20041;-76
2022/04/23 00:18:53;;;;;;;7.05;2.80;;;11.70;94.60;;;;;;5065692;28;20170;-76
2022/04/23 00:21:19;;;;;;;4.70;2.88;;;11.60;94.70;;;;;;5067113;28;20127;-76
2022/04/23 00:23:47;;;;;;;6.38;3.13;;;11.60;94.80;;;;;;5068862;28;20053;-76
2022/04/23 00:26:13;;;;;;;4.82;2.92;;;11.60;95.10;;;;;;5070145;28;21513;-76
2022/04/23 00:28:38;;;;;;;5.55;2.40;;;11.60;94.90;;;;;;5063350;28;20044;-76
2022/04/23 00:31:05;;;;;;;5.60;2.67;;;11.50;95.10;;;;;;5046152;28;20032;-76
2022/04/23 00:33:32;;;;;;;9.68;3.40;;;11.50;95.20;;;;;;5068272;28;20048;-76
2022/04/23 00:35:58;;;;;;;8.05;3.22;;;11.50;95.30;;;;;;5070239;28;20119;-76
2022/04/23 00:38:24;;;;;;;6.10;2.85;;;11.50;95.60;;;;;;5051994;28;20131;-76
2022/04/23 00:40:50;;;;;;;6.22;3.15;;;11.40;95.50;;;;;;5053175;28;20045;-76
2022/04/23 00:43:26;;;;;;;7.05;3.25;;;11.40;95.60;;;;;;5051313;28;20037;-76
2022/04/23 00:45:52;;;;;;;7.93;2.65;;;11.40;96.60;;;;;;5060554;28;20043;-76
2022/04/23 00:48:18;;;;;;;5.25;3.10;;;11.40;96.00;;;;;;5067586;28;20037;-76
2022/04/23 00:50:43;;;;;;;5.90;3.08;;;11.40;96.00;;;;;;5045606;28;20195;-76
2022/04/23 00:53:09;;;;;;;5.97;3.40;;;11.40;95.90;;;;;;5068211;28;20044;-76
2022/04/23 00:55:36;;;;;;;6.40;3.40;;;11.40;96.00;;;;;;5052463;28;20117;-76
2022/04/23 00:58:02;;;;;;;5.78;3.13;;;11.30;96.10;;;;;;5051660;28;20048;-76
2022/04/23 01:00:28;;;;;;;4.50;2.55;;;11.30;96.30;;;;;;5047665;28;20332;-76
2022/04/23 01:02:54;;;;;;;5.57;2.85;;;11.30;96.40;;;;;;5067161;28;20042;-76
2022/04/23 01:05:23;;;;;;;5.88;3.35;;;11.30;96.40;;;;;;5044117;28;20530;-76
2022/04/23 01:07:51;;;;;;;6.00;2.90;;;11.30;96.40;;;;;;5067985;28;20097;-76
2022/04/23 01:10:17;;;;;;;5.68;2.78;;;11.20;96.90;;;;;;5050976;28;20547;-76
2022/04/23 01:12:45;;;;;;;5.90;2.75;;;11.30;96.70;;;;;;5046549;28;20044;-76
2022/04/23 01:15:13;;;;;;;4.28;2.47;;;11.20;96.80;;;;;;5066830;28;20048;-76
2022/04/23 01:17:40;;;;;;;4.90;2.60;;;11.20;96.80;;;;;;5052127;28;20398;-76
2022/04/23 01:20:14;;;;;;;6.45;2.83;;;11.20;96.90;;;;;;5050482;28;20537;-76
2022/04/23 01:22:42;;;;;;;4.55;2.55;;;11.20;97.30;;;;;;5068368;28;20040;-76
2022/04/23 01:25:12;;;;;;;5.25;2.80;;;11.20;97.10;;;;;;5050970;28;20102;-76
2022/04/23 01:27:39;;;;;;;4.93;2.45;;;11.20;97.40;;;;;;5056746;28;20135;-76
2022/04/23 01:30:08;;;;;;;4.55;2.70;;;11.20;97.70;;;;;;5067264;28;20031;-76
2022/04/23 01:32:33;;;;;;;5.60;2.85;;;11.10;97.80;;;;;;5069295;28;20044;-76
2022/04/23 01:35:00;;;;;;;6.75;3.00;;;11.10;97.30;;;;;;5067408;28;20383;-76
2022/04/23 01:37:25;;;;;;;5.65;2.50;;;11.10;97.40;;;;;;5068552;28;20114;-76
2022/04/23 01:39:51;;;;;;;5.78;2.83;;;11.10;97.60;;;;;;5066232;28;20072;-76
2022/04/23 01:42:18;;;;;;;4.32;2.28;;;11.10;97.90;;;;;;5065794;28;20048;-76
2022/04/23 01:44:45;;;;;;;5.68;3.03;;;11.10;97.90;;;;;;5050878;28;20064;-76
2022/04/23 01:47:10;;;;;;;5.13;2.65;;;11.00;98.00;;;;;;5067426;28;20152;-76
2022/04/23 01:49:36;;;;;;;5.55;2.75;;;11.00;97.90;;;;;;5067035;28;20115;-76
2022/04/23 01:52:02;;;;;;;3.97;2.35;;;10.90;98.10;;;;;;5065751;28;20047;-76
2022/04/23 01:54:27;;;;;;;4.10;2.30;;;10.90;98.40;;;;;;5050726;28;20036;-76
2022/04/23 01:56:57;;;;;;;5.97;2.95;;;10.90;98.40;;;;;;5066229;28;20051;-76
2022/04/23 01:59:23;;;;;;;4.93;2.63;;;10.80;99.30;;;;;;5050958;28;20425;-76
2022/04/23 02:01:49;;;;;;;5.00;2.60;;;10.80;98.80;;;;;;5038983;28;20135;-76
2022/04/23 02:04:15;;;;;;;5.13;2.45;;;10.80;99.30;;;;;;5051104;28;20131;-76
2022/04/23 02:06:41;;;;;;;5.80;3.22;;;10.70;99.90;;;;;;5067177;28;20119;-76
2022/04/23 02:09:06;;;;;;;4.10;2.55;;;10.70;99.50;;;;;;5065796;28;20076;-76
2022/04/23 02:11:32;;;;;;;5.22;2.65;;;10.70;99.30;;;;;;5067232;28;20476;-76
2022/04/23 02:13:58;;;;;;;4.60;2.60;;;10.70;99.40;;;;;;5065846;28;20086;-76
2022/04/23 02:16:25;;;;;;;5.28;2.90;;;10.70;99.70;;;;;;5067511;28;20036;-76
2022/04/23 02:18:50;;;;;;;4.43;2.58;;;10.70;99.90;;;;;;5067549;28;20131;-76
2022/04/23 02:21:16;;;;;;;5.68;2.72;;;10.60;99.50;;;;;;5050221;28;20124;-76
2022/04/23 02:23:43;;;;;;;6.13;3.28;;;10.70;99.90;;;;;;5066311;28;20040;-76
2022/04/23 02:26:09;;;;;;;7.28;3.45;;;10.60;99.90;;;;;;5066823;28;20045;-76
2022/04/23 02:28:38;;;;;;;4.22;2.47;;;10.60;99.90;;;;;;5048776;28;20069;-76
2022/04/23 02:31:04;;;;;;;5.38;3.08;;;10.60;99.80;;;;;;5057327;28;20079;-76
2022/04/23 02:33:30;;;;;;;4.88;2.67;;;10.60;99.90;;;;;;5061318;28;20041;-76
2022/04/23 02:35:56;;;;;;;4.07;2.53;;;10.60;99.90;;;;;;5068223;28;20047;-76
2022/04/23 02:38:21;;;;;;;4.00;2.60;;;10.60;99.90;;;;;;5065955;28;20527;-76
2022/04/23 02:40:47;;;;;;;5.05;3.17;;;10.60;99.90;;;;;;5067562;28;20110;-76
2022/04/23 02:43:12;;;;;;;7.47;2.78;;;10.50;99.90;;;;;;5065311;28;20036;-76
2022/04/23 02:45:39;;;;;;;5.03;2.67;;;10.50;99.90;;;;;;5046286;28;20044;-76
2022/04/23 02:48:04;;;;;;;4.82;2.85;;;10.50;99.90;;;;;;5048633;28;20490;-76
2022/04/23 02:50:38;;;;;;;4.60;2.50;;;10.50;99.90;;;;;;5064582;28;20059;-76
2022/04/23 02:53:05;;;;;;;5.32;2.67;;;10.50;99.90;;;;;;5062998;28;20036;-76
2022/04/23 02:55:31;;;;;;;4.72;2.78;;;10.40;99.90;;;;;;5066473;28;20036;-76
2022/04/23 02:58:07;;;;;;;6.03;3.42;;;10.40;99.90;;;;;;5060678;28;20052;-76
2022/04/23 03:00:34;;;;;;;4.97;2.58;;;10.40;99.90;;;;;;5050499;28;20045;-76
2022/04/23 03:03:00;;;;;;;4.60;2.70;;;10.40;99.90;;;;;;5064984;28;20091;-76
2022/04/23 03:05:26;;;;;;;6.05;2.97;;;10.30;99.90;;;;;;5049112;28;20059;-76
2022/04/23 03:07:53;;;;;;;5.97;2.83;;;10.40;99.90;;;;;;5066260;28;20140;-76
2022/04/23 03:10:19;;;;;;;5.53;2.83;;;10.30;99.90;;;;;;5067655;28;20122;-76
2022/04/23 03:12:46;;;;;;;5.38;2.97;;;10.30;99.90;;;;;;5064389;28;20032;-76
2022/04/23 03:15:13;;;;;;;5.10;2.42;;;10.30;99.90;;;;;;5065446;28;20048;-76
2022/04/23 03:17:39;;;;;;;5.55;2.45;;;10.30;99.90;;;;;;5065953;28;20071;-76
2022/04/23 03:20:08;;;;;;;4.32;2.50;;;10.20;99.90;;;;;;5049364;28;20064;-76
2022/04/23 03:22:34;;;;;;;8.77;3.20;;;10.20;99.90;;;;;;5062915;28;20090;-76
2022/04/23 03:25:00;;;;;;;5.30;3.25;;;10.20;99.90;;;;;;5065079;28;20490;-76
2022/04/23 03:27:25;;;;;;;4.68;2.88;;;10.20;99.90;;;;;;5067050;28;20029;-76
2022/04/23 03:29:51;;;;;;;5.20;2.65;;;10.20;99.90;;;;;;5065504;28;20048;-76
2022/04/23 03:32:17;;;;;;;5.93;2.58;;;10.20;99.90;;;;;;5066799;28;20040;-76
2022/04/23 03:34:43;;;;;;;4.88;2.58;;;10.10;99.90;;;;;;5064947;28;20037;-76
2022/04/23 03:37:09;;;;;;;5.20;2.85;;;10.10;99.90;;;;;;5064631;28;20071;-76
2022/04/23 03:39:35;;;;;;;6.95;3.40;;;10.10;99.90;;;;;;5046985;28;20032;-76
2022/04/23 03:42:02;;;;;;;2.95;2.00;;;10.10;99.90;;;;;;5048878;28;20502;-76
2022/04/23 03:44:31;;;;;;;5.60;3.35;;;10.10;99.90;;;;;;5063659;28;20048;-76
2022/04/23 03:46:58;;;;;;;3.95;2.50;;;10.00;99.90;;;;;;5050251;28;20032;-76
2022/04/23 03:49:24;;;;;;;3.70;2.38;;;10.00;99.90;;;;;;5044943;28;20032;-76
2022/04/23 03:51:51;;;;;;;9.68;3.22;;;10.00;99.90;;;;;;5034440;28;20461;-76
2022/04/23 03:54:17;;;;;;;5.88;2.97;;;10.00;99.90;;;;;;5053296;28;20409;-76
2022/04/23 03:56:43;;;;;;;5.68;3.15;;;9.90;99.90;;;;;;5047741;28;20032;-76
2022/04/23 03:59:09;;;;;;;5.32;2.60;;;9.90;99.90;;;;;;5063085;28;20040;-77
2022/04/23 04:01:34;;;;;;;6.90;3.05;;;9.90;99.90;;;;;;5041807;28;20040;-76
2022/04/23 04:04:00;;;;;;;6.18;2.83;;;9.90;99.90;;;;;;5049605;28;20044;-76
2022/04/23 04:06:27;;;;;;;4.75;3.08;;;9.90;99.90;;;;;;5065022;28;20037;-76
2022/04/23 04:08:53;;;;;;;6.93;3.08;;;9.80;99.90;;;;;;5049951;28;20052;-76
2022/04/23 04:11:19;;;;;;;7.00;3.30;;;9.80;99.90;;;;;;5066294;28;20036;-76
2022/04/23 04:13:44;;;;;;;5.43;2.63;;;9.80;99.90;;;;;;5047232;28;20037;-76
2022/04/23 04:16:12;;;;;;;5.18;3.05;;;9.80;99.90;;;;;;5064840;28;20048;-76
2022/04/23 04:18:37;;;;;;;8.73;3.03;;;9.70;99.90;;;;;;5065405;28;20072;-76
2022/04/23 04:21:04;;;;;;;5.85;2.80;;;9.70;99.90;;;;;;5035422;28;20083;-76
2022/04/23 04:23:30;;;;;;;4.68;3.03;;;9.70;99.90;;;;;;5057416;28;20037;-76
2022/04/23 04:25:55;;;;;;;6.03;2.75;;;9.70;99.90;;;;;;5066061;28;20533;-76
2022/04/23 04:28:21;;;;;;;4.85;3.47;;;9.70;99.90;;;;;;5045109;28;20044;-76
2022/04/23 04:33:31;;;;;;;4.95;2.70;;;9.60;99.90;;;;;;5064569;28;20040;-76
2022/04/23 04:35:57;;;;;;;5.15;2.90;;;9.60;99.90;;;;;;5064812;28;20449;-76
2022/04/23 04:38:23;;;;;;;4.20;2.63;;;9.60;99.90;;;;;;5066005;28;20049;-76
2022/04/23 04:40:48;;;;;;;5.50;3.00;;;9.60;99.90;;;;;;5064944;28;20032;-76
2022/04/23 04:43:14;;;;;;;10.90;3.65;;;9.60;99.90;;;;;;5059579;28;20037;-76
2022/04/23 04:45:40;;;;;;;7.32;3.08;;;9.60;99.90;;;;;;5042722;28;20461;-76
2022/04/23 04:48:05;;;;;;;5.00;2.88;;;9.60;99.90;;;;;;5064813;28;20504;-76
2022/04/23 04:50:31;;;;;;;4.70;2.83;;;9.60;99.90;;;;;;5061853;28;20482;-76
2022/04/23 04:52:58;;;;;;;4.97;2.92;;;9.60;99.90;;;;;;5065395;28;20402;-76
2022/04/23 04:55:24;;;;;;;5.70;2.63;;;9.60;99.90;;;;;;5064822;28;20044;-76
2022/04/23 04:57:49;;;;;;;4.70;2.83;;;9.60;99.90;;;;;;5065125;28;20052;-76
2022/04/23 05:00:16;;;;;;;5.05;2.95;;;9.60;99.90;;;;;;5046441;28;20079;-76
2022/04/23 05:02:42;;;;;;;3.50;2.47;;;9.60;99.90;;;;;;5064871;28;20057;-76
2022/04/23 05:05:08;;;;;;;4.72;2.50;;;9.60;99.90;;;;;;5047012;28;20037;-76
2022/04/23 05:07:34;;;;;;;6.63;3.05;;;9.60;99.90;;;;;;5044847;28;20391;-76
2022/04/23 05:10:01;;;;;;;4.25;2.47;;;9.60;99.90;;;;;;5067895;28;20110;-76
2022/04/23 05:12:26;;;;;;;5.55;2.85;;;9.60;99.90;;;;;;5053636;28;20060;-77
2022/04/23 05:14:52;;;;;;;4.53;2.53;;;9.70;99.90;;;;;;5066485;28;20072;-76
2022/04/23 05:17:17;;;;;;;4.57;2.53;;;9.70;99.90;;;;;;5052712;28;20502;-76
2022/04/23 05:19:43;;;;;;;4.70;2.35;;;9.70;99.90;;;;;;5048891;28;20579;-76
2022/04/23 05:22:09;;;;;;;5.93;3.40;;;9.70;99.90;;;;;;5068856;28;20444;-76
2022/04/23 05:24:34;;;;;;;3.97;2.30;;;9.70;99.90;;;;;;5050497;28;20033;-76
2022/04/23 05:27:00;;;;;;;4.03;2.38;;;9.70;99.90;;;;;;5052096;28;20086;-76
2022/04/23 05:29:25;;;;;;;5.25;3.20;;;9.70;99.90;;;;;;5065171;28;20402;-76
2022/04/23 05:31:51;;;;;;;8.27;2.95;;;9.70;99.90;;;;;;5069706;28;20048;-76
2022/04/23 05:34:17;;;;;;;5.10;2.97;;;9.80;99.90;;;;;;5067554;28;20036;-76
2022/04/23 05:36:42;;;;;;;6.07;3.35;;;9.70;99.90;;;;;;5069245;28;20044;-76
2022/04/23 05:39:08;;;;;;;6.05;2.78;;;9.80;99.90;;;;;;5063423;28;20041;-76
2022/04/23 05:41:33;;;;;;;6.38;2.67;;;9.70;99.90;;;;;;5051542;28;20036;-76
2022/04/23 05:43:59;;;;;;;4.63;2.42;;;9.80;99.90;;;;;;5065409;28;20048;-76
2022/04/23 05:46:24;;;;;;;5.30;2.90;;;9.80;99.90;;;;;;5068997;28;20040;-76
2022/04/23 05:48:50;;;;;;;4.55;2.50;;;9.80;99.80;;;;;;5068366;28;20037;-76
2022/04/23 05:51:16;;;;;;;5.45;2.85;;;9.80;99.70;;;;;;5068402;28;20040;-76
2022/04/23 05:53:41;;;;;;;4.88;3.05;;;9.80;99.50;;;;;;5052356;28;20064;-76
2022/04/23 05:56:07;;;;;;;6.85;3.25;;;9.90;99.50;;;;;;5064707;28;20031;-76
2022/04/23 05:58:36;;;;;;;5.50;3.08;;;9.90;99.30;;;;;;5044571;28;20471;-76
2022/04/23 06:01:02;;;;;;;4.65;2.95;;;9.90;99.50;;;;;;5059680;28;20037;-75
2022/04/23 06:03:28;;;;;;;5.20;3.20;;;10.00;99.10;;;;;;5050116;28;20611;-75
2022/04/23 06:05:54;;;;;;;5.60;3.05;;;9.90;98.90;;;;;;5066805;28;20119;-75
2022/04/23 06:08:20;;;;;;;6.93;3.50;;;9.90;98.90;;;;;;5065330;28;20040;-75
2022/04/23 06:10:45;;;;;;;5.57;3.03;;;10.00;99.00;;;;;;5066295;28;20488;-75
2022/04/23 06:13:11;;;;;;;4.97;3.20;;;10.00;98.80;;;;;;5066031;28;20428;-75
2022/04/23 06:15:37;;;;;;;5.97;3.30;;;10.00;98.60;;;;;;5046164;28;20047;-75
2022/04/23 06:18:03;;;;;;;8.55;3.53;;;10.00;98.70;;;;;;5064031;28;20041;-76
2022/04/23 06:20:28;;;;;;;5.88;2.75;;;10.10;98.50;;;;;;5065933;28;20040;-75
2022/04/23 06:22:54;;;;;;;6.15;3.42;;;10.10;98.40;;;;;;5079820;28;20397;-76
2022/04/23 06:25:19;;;;;;;5.43;2.83;;;10.10;98.20;;;;;;5056499;28;20036;-76
2022/04/23 06:27:45;;;;;;;5.00;2.97;;;10.20;98.00;;;;;;5065488;28;20047;-76
2022/04/23 06:30:11;;;;;;;4.72;3.35;;;10.20;97.90;;;;;;5065986;28;20101;-76
2022/04/23 06:32:40;;;;;;;7.32;3.28;;;10.30;97.70;;;;;;5051875;28;20029;-76
2022/04/23 06:35:09;;;;;;;5.80;3.75;;;10.30;97.60;;;;;;5047681;28;20044;-75
2022/04/23 06:37:41;;;;;;;6.47;3.65;;;10.40;97.50;;;;;;5065073;28;20072;-76
2022/04/23 06:40:10;;;;;;;7.25;3.47;;;10.40;97.40;;;;;;5049833;28;20040;-76
2022/04/23 06:42:36;;;;;;;5.57;3.20;;;10.50;97.30;;;;;;5065694;28;20045;-76
2022/04/23 06:45:02;;;;;;;6.53;3.25;;;10.50;97.00;;;;;;5048156;28;20450;-76
2022/04/23 06:47:28;;;;;;;5.63;3.28;;;10.60;96.80;;;;;;5049221;28;20028;-77
2022/04/23 06:49:57;;;;;;;4.15;2.72;;;10.70;96.50;;;;;;5065709;28;20390;-77
2022/04/23 06:52:22;;;;;;;6.63;3.40;;;10.70;96.60;;;;;;5064849;28;20037;-75
2022/04/23 06:54:48;;;;;;;4.75;3.25;;;10.80;96.10;;;;;;5061972;28;20043;-79
2022/04/23 06:57:13;;;;;;;5.30;2.85;;;10.80;96.30;;;;;;5047488;28;20135;-75
2022/04/23 06:59:39;;;;;;;6.10;3.08;;;10.90;95.80;;;;;;5064606;28;20040;-75
2022/04/23 07:02:05;;;;;;;6.65;3.10;;;10.90;95.80;;;;;;5067585;28;20056;-75
2022/04/23 07:04:31;;;;;;;5.88;2.90;;;11.00;95.60;;;;;;5051653;28;20126;-75
2022/04/23 07:06:56;;;;;;;6.07;3.28;;;11.00;95.50;;;;;;5067082;28;20037;-75
2022/04/23 07:09:22;;;;;;;5.05;2.95;;;11.10;95.20;;;;;;5050092;28;20493;-75
2022/04/23 07:11:47;;;;;;;9.10;3.78;;;11.10;95.20;;;;;;5048877;28;20046;-75
2022/04/23 07:14:13;;;;;;;5.75;3.42;;;11.10;94.60;;;;;;5047172;28;20298;-76
2022/04/23 07:16:40;;;;;;;5.60;3.40;;;11.20;94.50;;;;;;5066828;28;20124;-76
2022/04/23 07:19:07;;;;;;;5.97;3.22;;;11.30;94.20;;;;;;5066607;28;20498;-75
2022/04/23 07:21:34;;;;;;;6.63;3.35;;;11.30;94.20;;;;;;5049876;28;20102;-75
2022/04/23 07:24:03;;;;;;;5.45;3.00;;;11.30;93.50;;;;;;5066232;28;20055;-75
2022/04/23 07:26:29;;;;;;;5.47;3.08;;;11.30;94.10;;;;;;5067863;28;20075;-75
2022/04/23 07:28:55;;;;;;;6.82;3.15;;;11.40;94.00;;;;;;5065054;28;20383;-75
2022/04/23 07:31:21;;;;;;;6.78;3.53;;;11.50;94.00;;;;;;5067850;28;20118;-75
2022/04/23 07:39:14;;;;;;;3.90;2.33;;;11.60;92.80;;;;;;5067237;28;20044;-75
2022/04/23 07:41:40;;;;;;;7.88;3.80;;;11.60;92.50;;;;;;5066512;28;20047;-75
2022/04/23 07:44:06;;;;;;;6.43;3.45;;;11.70;92.40;;;;;;5049078;28;20041;-75
2022/04/23 07:46:31;;;;;;;4.30;2.70;;;11.70;91.80;;;;;;5067559;28;20047;-76
2022/04/23 07:48:58;;;;;;;5.78;3.13;;;11.80;91.20;;;;;;5049096;28;20039;-76
2022/04/23 07:51:26;;;;;;;5.70;3.58;;;11.80;91.70;;;;;;5050454;28;20482;-76
2022/04/23 07:53:52;;;;;;;6.13;3.08;;;11.90;91.20;;;;;;5050287;28;20036;-76
2022/04/23 07:56:18;;;;;;;5.03;3.22;;;11.90;91.00;;;;;;5050388;28;20101;-76
2022/04/23 07:58:44;;;;;;;4.35;2.88;;;12.00;90.80;;;;;;5048548;28;20048;-76
2022/04/23 08:01:09;;;;;;;5.47;3.55;;;12.00;90.90;;;;;;5067227;28;20098;-75
2022/04/23 08:03:35;;;;;;;6.15;3.20;;;12.00;90.80;;;;;;5065771;28;20040;-75
2022/04/23 08:06:00;;;;;;;3.97;2.50;;;12.10;91.10;;;;;;5066955;28;20068;-75
2022/04/23 08:08:26;;;;;;;6.07;3.72;;;12.20;90.10;;;;;;5049263;28;20402;-75
2022/04/23 08:10:52;;;;;;;5.30;3.38;;;12.20;89.40;;;;;;5067230;28;20123;-75
2022/04/23 08:13:17;;;;;;;4.93;2.88;;;12.20;88.20;;;;;;5047980;28;20048;-75
2022/04/23 08:15:43;;;;;;;5.63;2.78;;;12.30;87.10;;;;;;5050248;28;20051;-75
2022/04/23 08:18:09;;;;;;;6.32;3.38;;;12.30;87.60;;;;;;5049834;28;20102;-75
2022/04/23 08:20:34;;;;;;;4.63;2.78;;;12.40;87.70;;;;;;5066541;28;20544;-76
2022/04/23 08:23:00;;;;;;;6.40;3.47;;;12.40;87.60;;;;;;5066401;28;20044;-76
2022/04/23 08:25:25;;;;;;;5.53;3.10;;;12.40;86.80;;;;;;5049764;28;20452;-76
2022/04/23 08:27:52;;;;;;;6.32;3.28;;;12.50;85.20;;;;;;5048784;28;20059;-76
2022/04/23 08:30:37;;;;;;;5.32;3.50;;;12.50;85.30;;;;;;5065018;28;20135;-75
2022/04/23 08:33:04;;;;;;;5.38;3.20;;;12.50;84.40;;;;;;5048303;28;20033;-76
2022/04/23 08:35:31;;;;;;;5.35;3.10;;;12.50;83.10;;;;;;5066891;28;20040;-76
2022/04/23 08:37:57;;;;;;;5.15;2.95;;;12.60;83.50;;;;;;5066487;28;20492;-76
2022/04/23 08:40:23;;;;;;;5.50;3.13;;;12.60;82.80;;;;;;5049193;28;20037;-75
2022/04/23 08:42:49;;;;;;;5.53;3.42;;;12.70;82.50;;;;;;5067945;28;20032;-76
2022/04/23 08:45:14;;;;;;;5.50;3.22;;;12.70;82.30;;;;;;5069185;28;20044;-76
2022/04/23 08:47:45;;;;;;;6.45;3.40;;;12.70;82.40;;;;;;5054008;28;20036;-76
2022/04/23 08:50:11;;;;;;;4.03;2.50;;;12.70;79.90;;;;;;5069873;28;20044;-76
2022/04/23 08:52:40;;;;;;;5.30;2.83;;;12.80;79.50;;;;;;5068529;28;20505;-76
2022/04/23 08:55:06;;;;;;;5.13;2.92;;;12.90;80.50;;;;;;5070243;28;20044;-76
2022/04/23 08:57:33;;;;;;;6.32;3.20;;;12.90;81.40;;;;;;5070397;28;20445;-76
2022/04/23 08:59:59;;;;;;;6.70;3.50;;;12.90;80.50;;;;;;5069372;28;20047;-76
2022/04/23 09:02:27;;;;;;;4.70;2.95;;;13.00;80.20;;;;;;5053908;28;20041;-76
2022/04/23 09:04:57;;;;;;;4.03;2.55;;;13.00;79.50;;;;;;5052718;28;20408;-76
2022/04/23 09:07:27;;;;;;;4.95;2.92;;;13.10;79.60;;;;;;5052352;28;20039;-76
2022/04/23 09:09:55;;;;;;;4.45;2.35;;;13.10;75.80;;;;;;5069618;28;20039;-76
2022/04/23 09:12:25;;;;;;;5.38;3.05;;;13.20;77.00;;;;;;5053840;28;20098;-76
2022/04/23 09:23:39;;;;;;;4.65;2.78;;;13.20;78.00;;;;;;5069229;28;20036;-76
2022/04/23 09:23:43;;;;;;;4.35;2.83;;;13.30;73.10;;;;;;5065724;28;20434;-75
2022/04/23 09:26:20;;;;;;;7.00;2.90;;;13.40;74.20;;;;;;5065415;28;20051;-75
2022/04/23 09:28:48;;;;;;;4.72;2.97;;;13.40;72.70;;;;;;5060851;28;20055;-76
2022/04/23 09:31:15;;;;;;;4.47;2.90;;;13.40;74.60;;;;;;5066317;28;20068;-75
2022/04/23 09:33:45;;;;;;;8.30;3.40;;;13.40;73.80;;;;;;5056464;28;20033;-75
2022/04/23 09:36:12;;;;;;;6.22;3.22;;;13.40;73.30;;;;;;5051232;28;20127;-75
2022/04/23 09:38:38;;;;;;;4.15;2.53;;;13.50;74.00;;;;;;5066140;28;20047;-75
2022/04/23 09:41:15;;;;;;;4.50;2.78;;;13.50;73.60;;;;;;5050847;28;20139;-77
2022/04/23 09:43:42;;;;;;;6.28;3.50;;;13.60;73.30;;;;;;5061688;28;20041;-75
2022/04/23 09:46:09;;;;;;;4.20;2.78;;;13.60;69.60;;;;;;5064532;28;20032;-76
2022/04/23 09:48:38;;;;;;;5.55;3.00;;;13.70;71.30;;;;;;5063935;28;20033;-75
2022/04/23 09:51:04;;;;;;;4.57;2.55;;;13.70;71.00;;;;;;5044373;28;20501;-75
2022/04/23 09:53:30;;;;;;;4.43;2.72;;;13.70;71.80;;;;;;5064149;28;20044;-75
2022/04/23 09:55:59;;;;;;;3.45;2.17;;;13.70;71.50;;;;;;5064374;28;20401;-76
2022/04/23 09:58:27;;;;;;;6.88;3.42;;;13.70;71.60;;;;;;5064141;28;20094;-76
2022/04/23 10:00:53;;;;;;;6.07;3.28;;;13.80;71.50;;;;;;5058225;28;20132;-75
2022/04/23 10:03:24;;;;;;;4.75;2.80;;;13.80;69.70;;;;;;5048156;28;20067;-76
2022/04/23 10:05:51;;;;;;;4.47;2.80;;;13.80;69.70;;;;;;5066725;28;20097;-76
2022/04/23 10:08:21;;;;;;;4.72;3.22;;;13.80;69.40;;;;;;5063656;28;20061;-75
2022/04/23 10:11:11;;;;;;;5.25;2.88;;;13.80;68.50;;;;;;5065312;28;20060;-76
2022/04/23 10:13:40;;;;;;;4.47;2.70;;;13.90;63.60;;;;;;5062836;28;20033;-78
2022/04/23 10:16:07;;;;;;;4.93;2.88;;;13.90;68.20;;;;;;5063450;28;20043;-76
2022/04/23 10:18:38;;;;;;;6.20;3.20;;;13.90;67.70;;;;;;5066086;28;20033;-76
2022/04/23 10:21:08;;;;;;;4.45;2.80;;;14.00;67.60;;;;;;5049333;28;20037;-77
2022/04/23 10:23:52;;;;;;;7.35;2.70;;;14.10;67.60;;;;;;5061944;28;20448;-76
2022/04/23 10:26:38;;;;;;;4.60;2.55;;;14.00;64.80;;;;;;5049736;28;20032;-76
2022/04/23 10:29:09;;;;;;;5.75;3.22;;;14.10;64.10;;;;;;5047160;28;20029;-76
2022/04/23 10:31:35;;;;;;;5.30;3.10;;;14.10;66.80;;;;;;5046652;28;20033;-76
2022/04/23 10:34:01;;;;;;;4.63;2.70;;;14.10;66.60;;;;;;5064616;28;20504;-76
2022/04/23 10:36:27;;;;;;;4.53;3.17;;;14.10;66.90;;;;;;5062955;28;20045;-76
2022/04/23 10:39:18;;;;;;;5.07;2.83;;;14.10;66.90;;;;;;5045578;28;20493;-76
2022/04/23 10:41:44;;;;;;;5.55;2.80;;;14.20;62.80;;;;;;5044577;28;20100;-76
2022/04/23 10:44:10;;;;;;;5.75;2.92;;;14.30;66.00;;;;;;5061815;28;20071;-75
2022/04/23 10:46:42;;;;;;;5.40;3.20;;;14.30;66.40;;;;;;5060958;28;20040;-75
2022/04/23 10:49:22;;;;;;;4.35;2.40;;;14.30;65.50;;;;;;5061152;28;20106;-75
2022/04/23 10:51:49;;;;;;;5.47;2.75;;;14.40;63.40;;;;;;5075056;28;20028;-75
2022/04/23 10:54:21;;;;;;;4.80;2.45;;;14.40;65.20;;;;;;5044537;28;20044;-75
2022/04/23 10:56:57;;;;;;;4.72;2.60;;;14.40;63.20;;;;;;5045229;28;20048;-75
2022/04/23 10:59:43;;;;;;;5.63;3.00;;;14.50;64.00;;;;;;5046222;28;20047;-76
2022/04/23 11:02:24;;;;;;;6.18;3.05;;;14.50;63.70;;;;;;5051200;28;20044;-76
2022/04/23 11:13:53;;;;;;;4.78;2.72;;;14.50;63.30;;;;;;5064227;28;20041;-76
2022/04/23 11:16:20;;;;;;;5.47;3.00;;;14.50;62.00;;;;;;5066603;28;20078;-76
2022/04/23 11:18:49;;;;;;;5.47;2.50;;;14.50;63.70;;;;;;5049876;28;20046;-76
2022/04/23 11:21:21;;;;;;;6.32;3.05;;;14.50;64.70;;;;;;5048383;28;20036;-76
2022/04/23 11:23:47;;;;;;;4.68;2.78;;;14.60;65.00;;;;;;5067643;28;20470;-76
2022/04/23 11:26:35;;;;;;;8.60;2.97;;;14.60;65.00;;;;;;5065335;28;20068;-76
2022/04/23 11:29:02;;;;;;;4.00;2.60;;;14.60;63.70;;;;;;5064825;28;20028;-76
2022/04/23 11:31:28;;;;;;;4.30;2.67;;;14.70;63.60;;;;;;5051056;28;20390;-76
2022/04/23 11:33:59;;;;;;;5.82;3.63;;;14.70;63.00;;;;;;5067321;28;20032;-76
2022/04/23 11:36:32;;;;;;;5.15;2.83;;;14.80;63.30;;;;;;5065953;28;20043;-76
2022/04/23 11:39:00;;;;;;;4.82;2.85;;;14.70;63.00;;;;;;5067184;28;20636;-76
2022/04/23 11:41:31;;;;;;;4.32;2.83;;;14.80;62.80;;;;;;5067456;28;20049;-76
2022/04/23 11:43:58;;;;;;;5.15;2.83;;;14.80;62.40;;;;;;5062901;28;20074;-76
2022/04/23 11:46:24;;;;;;;4.65;3.03;;;14.90;62.40;;;;;;5044113;28;20497;-75
2022/04/23 11:48:51;;;;;;;5.35;3.00;;;14.90;61.70;;;;;;5048401;28;20040;-75
2022/04/23 11:51:18;;;;;;;5.57;3.20;;;15.00;61.20;;;;;;5065861;28;20055;-76
2022/04/23 11:53:53;;;;;;;5.60;3.53;;;15.00;61.10;;;;;;5039670;28;20162;-76
2022/04/23 11:56:24;;;;;;;4.00;2.83;;;15.00;59.60;;;;;;5048559;28;21028;-76
2022/04/23 11:58:52;;;;;;;4.35;2.55;;;15.00;59.50;;;;;;5044261;28;20060;-75
2022/04/23 12:01:20;;;;;;;6.22;3.03;;;15.00;59.80;;;;;;5047111;28;20136;-75
2022/04/23 12:03:54;;;;;;;4.32;2.60;;;15.00;60.10;;;;;;5061006;28;20036;-74
2022/04/23 12:06:20;;;;;;;3.78;2.65;;;15.00;60.20;;;;;;5063746;28;20101;-75
2022/04/23 12:08:46;;;;;;;5.05;2.80;;;15.00;60.20;;;;;;5058655;28;20421;-77
2022/04/23 12:11:28;;;;;;;3.83;2.10;;;15.00;59.80;;;;;;5060483;28;20047;-76
2022/04/23 12:13:55;;;;;;;3.97;2.20;;;15.10;57.10;;;;;;5046067;28;20048;-76
2022/04/23 12:16:41;;;;;;;3.72;2.17;;;15.10;58.20;;;;;;5051168;28;20127;-76
2022/04/23 12:19:09;;;;;;;;;;;15.10;57.00;;;;;;5070697;28;20393;-76
2022/04/23 12:21:37;;;;;;;3.47;2.35;;;15.10;54.40;;;;;;5071281;28;19916;-76
2022/04/23 12:24:03;;;;;;;3.25;1.92;;;15.20;57.80;;;;;;5069445;28;20441;-77
2022/04/23 12:26:39;;;;;;;3.63;1.98;;;15.30;57.60;;;;;;5070450;28;20051;-77
2022/04/23 12:43:17;;;;;;;5.05;2.60;;;15.30;56.70;;;;;;5070594;28;20056;-77
2022/04/23 12:45:43;;;;;;;3.00;1.83;;;15.30;55.00;;;;;;5069786;28;20073;-77
2022/04/23 12:48:09;;;;;;;3.83;2.30;;;15.40;56.80;;;;;;5053366;28;20028;-77
2022/04/23 12:50:34;;;;;;;2.92;1.95;;;15.40;56.50;;;;;;5070389;28;20115;-76
2022/04/23 12:53:00;;;;;;;4.15;2.38;;;15.40;56.60;;;;;;5052015;28;20092;-77
2022/04/23 12:55:36;;;;;;;7.22;2.40;;;15.50;56.90;;;;;;5069330;28;20500;-77
2022/04/23 12:58:08;;;;;;;4.40;2.00;;;15.50;55.90;;;;;;5069987;28;20063;-77
2022/04/23 13:00:40;;;;;;;4.72;2.28;;;15.40;55.60;;;;;;5070458;28;20545;-77
2022/04/23 13:05:47;;;;;;;3.13;1.65;;;15.50;55.40;;;;;;5069303;28;20067;-77
2022/04/23 13:11:24;;;;;;;2.97;1.75;;;15.60;54.30;;;;;;5069755;28;20068;-77
2022/04/23 13:13:46;;;;;;;2.90;1.63;;;15.60;54.90;;;;;;5067297;28;20064;-77
2022/04/23 13:16:11;;;;;;;2.60;1.52;;;15.70;53.60;;;;;;5051714;28;20056;-77
2022/04/23 13:18:37;;;;;;;3.22;2.00;;;15.70;53.60;;;;;;5070087;28;20043;-77
2022/04/23 13:21:05;;;;;;;3.45;1.80;;;15.60;53.20;;;;;;5053412;28;20181;-77
2022/04/23 13:23:32;;;;;;;3.15;1.67;;;15.70;53.20;;;;;;5052914;28;20128;-77
2022/04/23 13:25:57;;;;;;;3.28;1.70;;;15.70;53.10;;;;;;5070069;28;20494;-77
2022/04/23 13:28:23;;;;;;;3.10;1.92;;;15.70;53.20;;;;;;5050568;28;20043;-76
2022/04/23 13:30:49;;;;;;;3.08;1.90;;;15.60;52.90;;;;;;5057210;28;20040;-77
2022/04/23 13:33:14;;;;;;;2.67;1.77;;;15.70;53.10;;;;;;5069603;28;20036;-76